createdAt,value
2019-02-09T00:00:15.422Z,988.5
2019-02-09T00:03:16.289Z,988.5
2019-02-09T00:06:15.842Z,988.4
2019-02-09T00:09:16.327Z,988.3
2019-02-09T00:12:15.539Z,988.3
2019-02-09T00:15:15.266Z,988.4
2019-02-09T00:18:14.997Z,988.2
2019-02-09T00:21:15.573Z,988.3
2019-02-09T00:24:15.156Z,988.3
2019-02-09T00:27:15.601Z,988.2
2019-02-09T00:30:15.174Z,988.1
2019-02-09T00:33:15.774Z,988.1
2019-02-09T00:36:15.326Z,988.0
2019-02-09T00:39:15.751Z,988.0
2019-02-09T00:42:15.229Z,987.9
2019-02-09T00:45:15.912Z,987.8
2019-02-09T00:48:15.879Z,987.9
2019-02-09T00:51:15.615Z,987.9
2019-02-09T00:54:15.114Z,987.9
2019-02-09T00:57:15.569Z,987.8
2019-02-09T01:00:15.017Z,987.8
2019-02-09T01:03:14.893Z,987.7
2019-02-09T01:06:15.483Z,987.8
2019-02-09T01:09:15.078Z,987.7
2019-02-09T01:12:15.733Z,987.7
2019-02-09T01:15:15.296Z,987.8
2019-02-09T01:18:15.223Z,987.8
2019-02-09T01:21:15.834Z,987.7
2019-02-09T01:24:15.412Z,987.7
2019-02-09T01:27:15.020Z,987.8
2019-02-09T01:30:15.548Z,987.8
2019-02-09T01:33:15.419Z,987.8
2019-02-09T01:36:14.925Z,987.9
2019-02-09T01:39:15.449Z,987.9
2019-02-09T01:42:15.158Z,987.9
2019-02-09T01:45:15.612Z,987.8
2019-02-09T01:48:14.820Z,987.9
2019-02-09T01:51:15.331Z,987.8
2019-02-09T01:54:14.860Z,987.8
2019-02-09T01:57:15.398Z,987.6
2019-02-09T02:00:14.951Z,987.6
2019-02-09T02:03:15.553Z,987.6
2019-02-09T02:06:15.222Z,987.5
2019-02-09T02:09:15.781Z,987.5
2019-02-09T02:12:15.323Z,987.4
2019-02-09T02:15:14.810Z,987.4
2019-02-09T02:18:15.633Z,987.4
2019-02-09T02:21:15.164Z,987.3
2019-02-09T02:24:15.772Z,987.5
2019-02-09T02:27:15.331Z,987.5
2019-02-09T02:30:22.450Z,987.3
2019-02-09T02:33:15.232Z,987.3
2019-02-09T02:36:15.695Z,987.3
2019-02-09T02:39:15.313Z,987.2
2019-02-09T02:42:15.054Z,987.2
2019-02-09T02:45:15.712Z,987.1
2019-02-09T02:48:15.694Z,987.0
2019-02-09T02:51:15.127Z,986.8
2019-02-09T02:54:15.242Z,986.2
2019-02-09T02:57:15.776Z,986.3
2019-02-09T03:00:15.402Z,986.1
2019-02-09T03:03:15.491Z,985.9
2019-02-09T03:06:15.159Z,986.1
2019-02-09T03:09:15.794Z,986.1
2019-02-09T03:12:15.341Z,986.4
2019-02-09T03:15:15.836Z,986.4
2019-02-09T03:18:15.381Z,986.3
2019-02-09T03:21:15.859Z,986.4
2019-02-09T03:24:15.385Z,986.2
2019-02-09T03:27:14.909Z,986.4
2019-02-09T03:30:15.449Z,986.6
2019-02-09T03:33:15.311Z,986.6
2019-02-09T03:36:15.003Z,986.6
2019-02-09T03:39:15.624Z,986.7
2019-02-09T03:42:15.288Z,986.5
2019-02-09T03:45:15.817Z,986.6
2019-02-09T03:48:15.267Z,986.6
2019-02-09T03:51:15.858Z,986.8
2019-02-09T03:54:15.077Z,986.9
2019-02-09T03:57:15.764Z,986.5
2019-02-09T04:00:15.474Z,986.7
2019-02-09T04:03:15.363Z,986.6
2019-02-09T04:06:15.507Z,986.6
2019-02-09T04:09:14.998Z,986.7
2019-02-09T04:12:20.559Z,986.8
2019-02-09T04:15:15.278Z,986.8
2019-02-09T04:18:15.526Z,986.8
2019-02-09T04:21:15.180Z,986.9
2019-02-09T04:24:15.717Z,987.0
2019-02-09T04:27:15.269Z,987.1
2019-02-09T04:30:14.896Z,987.0
2019-02-09T04:33:15.749Z,987.1
2019-02-09T04:36:15.657Z,987.1
2019-02-09T04:39:15.155Z,987.1
2019-02-09T04:42:15.509Z,987.1
2019-02-09T04:45:15.079Z,987.1
2019-02-09T04:48:15.774Z,987.2
2019-02-09T04:51:15.251Z,987.3
2019-02-09T04:54:15.196Z,987.3
2019-02-09T04:57:15.804Z,987.3
2019-02-09T05:00:15.572Z,987.2
2019-02-09T05:03:15.272Z,987.3
2019-02-09T05:06:15.131Z,987.3
2019-02-09T05:09:15.732Z,987.3
2019-02-09T05:12:15.523Z,987.3
2019-02-09T05:15:15.097Z,987.6
2019-02-09T05:18:15.001Z,987.7
2019-02-09T05:21:15.748Z,987.8
2019-02-09T05:24:15.280Z,987.8
2019-02-09T05:27:15.284Z,987.9
2019-02-09T05:30:20.097Z,987.8
2019-02-09T05:33:15.832Z,987.9
2019-02-09T05:36:15.345Z,987.9
2019-02-09T05:39:15.136Z,987.9
2019-02-09T05:42:15.820Z,988.0
2019-02-09T05:45:15.536Z,988.0
2019-02-09T05:48:15.605Z,988.3
2019-02-09T05:51:15.261Z,988.3
2019-02-09T05:54:15.116Z,988.3
2019-02-09T05:57:15.825Z,988.2
2019-02-09T06:00:15.672Z,988.2
2019-02-09T06:03:15.241Z,988.4
2019-02-09T06:06:14.976Z,988.3
2019-02-09T06:09:15.661Z,988.4
2019-02-09T06:12:15.391Z,988.4
2019-02-09T06:15:15.216Z,988.5
2019-02-09T06:18:15.488Z,988.5
2019-02-09T06:21:15.162Z,988.5
2019-02-09T06:24:20.935Z,988.6
2019-02-09T06:27:15.655Z,988.7
2019-02-09T06:30:15.426Z,988.6
2019-02-09T06:33:15.813Z,988.6
2019-02-09T06:36:15.486Z,988.7
2019-02-09T06:39:15.161Z,988.7
2019-02-09T06:42:15.882Z,988.7
2019-02-09T06:45:15.554Z,988.7
2019-02-09T06:48:15.400Z,988.9
2019-02-09T06:51:15.285Z,988.9
2019-02-09T06:54:15.900Z,988.9
2019-02-09T06:57:15.583Z,988.9
2019-02-09T07:00:15.562Z,988.9
2019-02-09T07:03:29.602Z,989.0
2019-02-09T07:07:00.541Z,989.0
2019-02-09T07:09:23.549Z,988.9
2019-02-09T07:12:33.690Z,988.9
2019-02-09T07:15:42.548Z,989.0
2019-02-09T07:18:16.153Z,989.1
2019-02-09T07:21:15.659Z,989.2
2019-02-09T07:24:15.424Z,989.1
2019-02-09T07:27:15.386Z,989.2
2019-02-09T07:30:15.324Z,989.4
2019-02-09T07:33:15.841Z,989.3
2019-02-09T07:36:15.585Z,989.4
2019-02-09T07:39:15.142Z,989.4
2019-02-09T07:42:14.998Z,989.5
2019-02-09T07:45:15.337Z,989.6
2019-02-09T07:48:16.976Z,989.6
2019-02-09T07:51:16.689Z,989.7
2019-02-09T07:54:15.073Z,989.7
2019-02-09T07:57:15.673Z,989.8
2019-02-09T08:00:15.572Z,989.9
2019-02-09T08:03:15.759Z,990.0
2019-02-09T08:06:15.385Z,990.0
2019-02-09T08:09:15.004Z,990.1
2019-02-09T08:12:15.650Z,989.9
2019-02-09T08:15:15.205Z,990.1
2019-02-09T08:18:14.911Z,990.3
2019-02-09T08:21:15.588Z,990.2
2019-02-09T08:24:15.304Z,990.3
2019-02-09T08:27:23.301Z,990.3
2019-02-09T08:30:15.775Z,990.3
2019-02-09T08:33:15.301Z,990.4
2019-02-09T08:36:15.091Z,990.4
2019-02-09T08:39:15.686Z,990.4
2019-02-09T08:42:15.260Z,990.4
2019-02-09T08:45:14.996Z,990.3
2019-02-09T08:48:15.767Z,990.3
2019-02-09T08:51:15.510Z,990.3
2019-02-09T08:54:15.239Z,990.4
2019-02-09T08:57:15.943Z,990.4
2019-02-09T09:00:15.664Z,990.3
2019-02-09T09:03:15.414Z,990.5
2019-02-09T09:06:15.015Z,990.5
2019-02-09T09:09:20.809Z,990.4
2019-02-09T09:12:15.338Z,990.4
2019-02-09T09:15:14.949Z,990.4
2019-02-09T09:18:15.573Z,990.4
2019-02-09T09:21:15.333Z,990.5
2019-02-09T09:24:15.118Z,990.5
2019-02-09T09:27:15.605Z,990.6
2019-02-09T09:30:15.255Z,990.6
2019-02-09T09:33:14.941Z,990.7
2019-02-09T09:36:15.692Z,990.7
2019-02-09T09:39:15.519Z,990.8
2019-02-09T09:42:15.287Z,990.7
2019-02-09T09:45:15.285Z,990.8
2019-02-09T09:48:15.648Z,990.7
2019-02-09T09:51:15.365Z,990.8
2019-02-09T09:54:14.924Z,990.9
2019-02-09T09:57:15.698Z,990.9
2019-02-09T10:00:15.465Z,990.8
2019-02-09T10:03:15.591Z,990.8
2019-02-09T10:06:15.337Z,990.8
2019-02-09T10:09:15.204Z,991.0
2019-02-09T10:12:16.007Z,990.8
2019-02-09T10:15:15.854Z,991.0
2019-02-09T10:18:15.570Z,991.0
2019-02-09T10:21:15.382Z,991.1
2019-02-09T10:24:15.192Z,991.0
2019-02-09T10:27:15.924Z,991.0
2019-02-09T10:30:15.466Z,991.2
2019-02-09T10:33:15.800Z,991.3
2019-02-09T10:36:15.509Z,991.4
2019-02-09T10:39:15.177Z,991.3
2019-02-09T10:42:15.070Z,991.2
2019-02-09T10:45:14.958Z,991.1
2019-02-09T10:48:15.287Z,991.2
2019-02-09T10:51:15.063Z,991.1
2019-02-09T10:54:15.773Z,991.0
2019-02-09T10:57:15.842Z,991.1
2019-02-09T11:00:15.527Z,991.1
2019-02-09T11:03:15.177Z,991.1
2019-02-09T11:06:15.136Z,991.1
2019-02-09T11:09:15.681Z,991.2
2019-02-09T11:12:15.607Z,991.2
2019-02-09T11:15:15.396Z,991.1
2019-02-09T11:18:15.604Z,991.3
2019-02-09T11:21:15.325Z,991.1
2019-02-09T11:24:15.131Z,991.0
2019-02-09T11:27:15.130Z,991.1
2019-02-09T11:30:15.965Z,991.1
2019-02-09T11:33:15.097Z,991.0
2019-02-09T11:36:15.834Z,990.9
2019-02-09T11:39:15.509Z,991.0
2019-02-09T11:42:15.258Z,991.0
2019-02-09T11:45:15.144Z,991.1
2019-02-09T11:48:15.445Z,991.0
2019-02-09T11:51:15.011Z,990.9
2019-02-09T11:54:15.668Z,991.0
2019-02-09T11:57:15.453Z,990.8
2019-02-09T12:00:15.175Z,990.7
2019-02-09T12:03:16.190Z,990.7
2019-02-09T12:06:15.137Z,991.0
2019-02-09T12:09:16.021Z,990.9
2019-02-09T12:12:15.924Z,991.0
2019-02-09T12:15:15.719Z,991.1
2019-02-09T12:18:15.513Z,991.3
2019-02-09T12:21:15.142Z,991.0
2019-02-09T12:24:15.228Z,991.1
2019-02-09T12:27:15.772Z,991.1
2019-02-09T12:30:15.620Z,991.2
2019-02-09T12:33:22.941Z,991.2
2019-02-09T12:36:15.330Z,991.0
2019-02-09T12:39:15.104Z,991.2
2019-02-09T12:42:15.700Z,991.2
2019-02-09T12:45:15.882Z,991.2
2019-02-09T12:48:15.061Z,991.1
2019-02-09T12:51:15.670Z,991.0
2019-02-09T12:54:15.852Z,990.9
2019-02-09T12:57:15.704Z,991.1
2019-02-09T13:00:15.463Z,991.0
2019-02-09T13:03:15.446Z,991.0
2019-02-09T13:06:15.220Z,991.0
2019-02-09T13:09:14.980Z,991.1
2019-02-09T13:12:15.574Z,991.1
2019-02-09T13:15:15.349Z,991.0
2019-02-09T13:18:15.456Z,991.0
2019-02-09T13:21:15.198Z,991.0
2019-02-09T13:24:15.861Z,991.0
2019-02-09T13:27:15.564Z,991.1
2019-02-09T13:30:15.344Z,991.1
2019-02-09T13:33:15.395Z,991.1
2019-02-09T13:36:15.237Z,991.0
2019-02-09T13:39:15.807Z,991.0
2019-02-09T13:42:15.490Z,991.1
2019-02-09T13:45:15.238Z,991.1
2019-02-09T13:48:15.396Z,991.1
2019-02-09T13:51:15.074Z,991.0
2019-02-09T13:54:15.817Z,991.1
2019-02-09T13:57:15.293Z,991.1
2019-02-09T14:00:15.859Z,991.2
2019-02-09T14:03:15.103Z,991.2
2019-02-09T14:06:17.625Z,991.2
2019-02-09T14:09:15.514Z,991.2
2019-02-09T14:12:15.176Z,991.2
2019-02-09T14:15:14.840Z,991.3
2019-02-09T14:18:15.781Z,991.4
2019-02-09T14:21:15.395Z,991.5
2019-02-09T14:24:14.910Z,991.3
2019-02-09T14:27:15.553Z,991.4
2019-02-09T14:30:15.794Z,991.4
2019-02-09T14:33:15.835Z,991.6
2019-02-09T14:36:15.641Z,991.5
2019-02-09T14:39:15.227Z,991.6
2019-02-09T14:42:15.922Z,991.6
2019-02-09T14:45:15.494Z,991.5
2019-02-09T14:48:15.298Z,991.5
2019-02-09T14:51:15.230Z,991.6
2019-02-09T14:54:15.824Z,991.7
2019-02-09T14:57:15.680Z,991.6
2019-02-09T15:00:15.620Z,991.6
2019-02-09T15:03:14.963Z,991.7
2019-02-09T15:06:15.677Z,991.6
2019-02-09T15:09:15.402Z,991.7
2019-02-09T15:12:15.534Z,991.6
2019-02-09T15:15:15.367Z,991.7
2019-02-09T15:18:15.320Z,991.7
2019-02-09T15:21:15.126Z,991.6
2019-02-09T15:24:15.774Z,991.7
2019-02-09T15:27:15.390Z,991.6
2019-02-09T15:30:15.136Z,991.7
2019-02-09T15:33:15.751Z,991.7
2019-02-09T15:36:15.586Z,991.8
2019-02-09T15:39:15.437Z,991.8
2019-02-09T15:42:16.150Z,991.7
2019-02-09T15:45:14.990Z,991.6
2019-02-09T15:48:15.642Z,991.8
2019-02-09T15:51:15.329Z,991.6
2019-02-09T15:54:14.929Z,991.7
2019-02-09T15:57:15.543Z,991.7
2019-02-09T16:00:15.189Z,991.7
2019-02-09T16:03:15.786Z,991.7
2019-02-09T16:06:15.444Z,991.7
2019-02-09T16:09:15.082Z,991.7
2019-02-09T16:12:15.733Z,991.6
2019-02-09T16:15:15.408Z,991.8
2019-02-09T16:18:15.795Z,991.7
2019-02-09T16:21:15.433Z,991.7
2019-02-09T16:24:15.190Z,991.7
2019-02-09T16:27:15.801Z,991.7
2019-02-09T16:30:18.616Z,991.8
2019-02-09T16:33:15.949Z,991.9
2019-02-09T16:36:15.596Z,991.9
2019-02-09T16:39:15.304Z,991.9
2019-02-09T16:42:15.132Z,992.0
2019-02-09T16:45:15.909Z,992.0
2019-02-09T16:48:15.699Z,992.1
2019-02-09T16:51:15.395Z,992.1
2019-02-09T16:54:15.125Z,992.2
2019-02-09T16:57:15.566Z,992.2
2019-02-09T17:00:15.167Z,992.3
2019-02-09T17:03:15.319Z,992.3
2019-02-09T17:06:15.063Z,992.3
2019-02-09T17:09:15.585Z,992.4
2019-02-09T17:12:15.342Z,992.5
2019-02-09T17:15:15.003Z,992.5
2019-02-09T17:18:15.819Z,992.5
2019-02-09T17:21:15.344Z,992.6
2019-02-09T17:24:15.154Z,992.6
2019-02-09T17:27:15.832Z,992.7
2019-02-09T17:30:15.573Z,992.7
2019-02-09T17:33:15.645Z,992.8
2019-02-09T17:36:15.311Z,992.7
2019-02-09T17:39:15.801Z,992.7
2019-02-09T17:42:15.512Z,992.8
2019-02-09T17:45:15.228Z,992.8
2019-02-09T17:48:15.845Z,992.8
2019-02-09T17:51:15.521Z,992.9
2019-02-09T17:54:15.131Z,992.9
2019-02-09T17:57:15.682Z,992.9
2019-02-09T18:00:15.444Z,992.9
2019-02-09T18:03:15.444Z,993.0
2019-02-09T18:06:15.103Z,993.0
2019-02-09T18:09:15.677Z,993.0
2019-02-09T18:12:14.955Z,993.0
2019-02-09T18:15:15.516Z,993.1
2019-02-09T18:18:15.423Z,993.0
2019-02-09T18:21:15.226Z,993.0
2019-02-09T18:24:15.139Z,993.0
2019-02-09T18:27:14.998Z,993.0
2019-02-09T18:30:15.917Z,993.0
2019-02-09T18:33:15.023Z,993.0
2019-02-09T18:36:15.606Z,992.9
2019-02-09T18:39:15.103Z,993.0
2019-02-09T18:42:15.533Z,993.0
2019-02-09T18:45:15.129Z,992.9
2019-02-09T18:48:15.723Z,992.9
2019-02-09T18:51:15.396Z,992.9
2019-02-09T18:54:15.005Z,992.9
2019-02-09T18:57:15.718Z,993.0
2019-02-09T19:00:15.388Z,992.9
2019-02-09T19:03:15.523Z,993.0
2019-02-09T19:06:15.295Z,992.9
2019-02-09T19:09:15.957Z,993.0
2019-02-09T19:12:15.725Z,992.9
2019-02-09T19:15:15.577Z,992.9
2019-02-09T19:18:21.366Z,992.9
2019-02-09T19:21:15.518Z,992.9
2019-02-09T19:24:16.857Z,992.9
2019-02-09T19:27:15.685Z,992.9
2019-02-09T19:30:15.772Z,992.9
2019-02-09T19:33:15.669Z,992.9
2019-02-09T19:36:16.343Z,992.9
2019-02-09T19:39:16.999Z,993.0
2019-02-09T19:42:19.338Z,993.0
2019-02-09T19:45:17.873Z,993.1
2019-02-09T19:48:15.855Z,992.9
2019-02-09T19:51:15.768Z,993.0
2019-02-09T19:54:18.498Z,993.0
2019-02-09T19:57:15.643Z,993.0
2019-02-09T20:00:15.089Z,993.0
2019-02-09T20:03:15.212Z,993.0
2019-02-09T20:06:15.132Z,993.1
2019-02-09T20:09:15.804Z,993.1
2019-02-09T20:12:15.563Z,993.1
2019-02-09T20:15:15.240Z,993.0
2019-02-09T20:18:15.477Z,993.0
2019-02-09T20:21:15.124Z,992.9
2019-02-09T20:24:14.937Z,992.9
2019-02-09T20:27:16.779Z,993.0
2019-02-09T20:30:15.621Z,993.0
2019-02-09T20:33:15.373Z,993.0
2019-02-09T20:36:15.089Z,992.9
2019-02-09T20:39:15.859Z,992.9
2019-02-09T20:42:15.543Z,992.8
2019-02-09T20:45:15.388Z,992.8
2019-02-09T20:54:15.668Z,992.8
2019-02-09T21:00:18.597Z,992.8
2019-02-09T21:03:18.421Z,992.7
2019-02-09T21:06:15.120Z,992.7
2019-02-09T21:09:15.877Z,992.8
2019-02-09T21:12:15.506Z,992.8
2019-02-09T21:15:15.181Z,992.9
2019-02-09T21:18:15.818Z,992.9
2019-02-09T21:21:15.607Z,993.0
2019-02-09T21:24:15.500Z,993.0
2019-02-09T21:27:15.075Z,992.9
2019-02-09T21:30:15.661Z,993.0
2019-02-09T21:33:15.869Z,993.0
2019-02-09T21:36:15.465Z,993.1
2019-02-09T21:39:15.149Z,992.9
2019-02-09T21:42:15.650Z,993.0
2019-02-09T21:45:15.169Z,992.9
2019-02-09T21:48:15.343Z,992.8
2019-02-09T21:51:15.069Z,992.8
2019-02-09T21:54:15.688Z,992.8
2019-02-09T21:57:15.450Z,992.8
2019-02-09T22:00:15.215Z,992.8
2019-02-09T22:03:15.155Z,992.7
2019-02-09T22:06:15.682Z,992.8
2019-02-09T22:09:15.417Z,992.8
2019-02-09T22:12:14.979Z,992.8
2019-02-09T22:15:15.837Z,992.8
2019-02-09T22:18:15.751Z,992.7
2019-02-09T22:21:15.691Z,992.7
2019-02-09T22:24:15.855Z,992.7
2019-02-09T22:27:15.556Z,992.7
2019-02-09T22:30:15.195Z,992.6
2019-02-09T22:33:24.054Z,992.6
2019-02-09T22:36:14.996Z,992.6
2019-02-09T22:39:32.116Z,992.5
2019-02-09T22:42:15.909Z,992.6
2019-02-09T22:45:25.608Z,992.5
2019-02-09T22:48:15.617Z,992.5
2019-02-09T22:51:21.550Z,992.4
2019-02-09T22:57:42.700Z,992.4
2019-02-09T23:00:16.752Z,992.4
2019-02-09T23:03:15.548Z,992.4
2019-02-09T23:06:52.327Z,992.4
2019-02-09T23:10:01.036Z,992.4
2019-02-09T23:12:15.522Z,992.3
2019-02-09T23:18:15.385Z,992.2
2019-02-09T23:21:14.914Z,992.2
2019-02-09T23:24:15.500Z,992.2
2019-02-09T23:27:15.052Z,992.1
2019-02-09T23:30:15.610Z,992.1
2019-02-09T23:33:15.166Z,992.0
2019-02-09T23:36:16.551Z,992.0
2019-02-09T23:39:15.242Z,992.0
2019-02-09T23:42:15.724Z,991.8
2019-02-09T23:45:15.155Z,991.8
2019-02-09T23:48:15.701Z,991.7
2019-02-09T23:51:15.168Z,991.5
2019-02-09T23:54:15.756Z,991.5
2019-02-09T23:57:15.372Z,991.4
